Worcester, MA

8:11 PM EDT on September 27, 2016 (GMT -0400)
Elm Park | | Change Station

Elev 509 ft 42.27 °N, 71.81 °W | Updated 11 seconds ago

Mostly Cloudy
Mostly Cloudy
62.6 °F
Feels Like 62.6 °F
N
0.0
Wind Variable Wind from NNW
Gusts 0.0 mph

Today
High -- | Low -- °F
--% Chance of Precip.
Yesterday
High -- | Low -- °F
Precip. -- in
Pressure 29.96 in
Visibility 10.0 miles
Clouds Mostly Cloudy 3600 ft
Dew Point 60 °F
Humidity 92%
Rainfall 0.37 in
Snow Depth Not available.
6:40 AM 6:34 PM
Waning Crescent, 9% visible
METAR KORH 272354Z 00000KT 10SM BKN036 16/12 A2996 RMK AO2 SLP146 T01560122 10206 20156 53015
Pressure 29.96 in
Visibility 10.0 miles
Clouds Mostly Cloudy 3600 ft
Dew Point 60 °F
Humidity 92%
Rainfall 0.37 in
Snow Depth Not available.
6:40 AM 6:34 PM
Waning Crescent, 9% visible
METAR KORH 272354Z 00000KT 10SM BKN036 16/12 A2996 RMK AO2 SLP146 T01560122 10206 20156 53015

10-Day Weather Forecast

Almanac

Astronomy

Sep. 27, 2016 Rise Set
Actual Time
Civil Twilight
Nautical Twilight
Astronomical Twilight
Moon
Length of Visible Light
Length of Day
Tomorrow will be .
, % of the Moon is Illuminated

Today's Extremes

State Highs State Lows

Community

WunderPhotos

Upload Photos

1,942,179 photos uploaded!

WunderBlog® & News

Nearby

Air Quality

  Air Quality AQ Index Pollutant
Not available.

Snow Depth

Station Depth Elevation

Earthquake Activity

City Distance Mag. Time & Date
Minimum magnitude displayed is 2.5.

Coastal Water Temperatures

Place Temperature

Stations

Nearby Weather Stations

Station Location Temp. Windchill Dew Point Humidity Wind Precip. Elev Updated Type
                   

Watches & Warnings

There are currently no watches in effect.